Oakes, North Dakota
Current Conditions -  °F | °C
As of 1:35 PM on Saturday 25 Oct 2014 (Local Time) from KGWR Reporting Station
Clear Clear  
Wind Chill: 63°   Ceiling: Unl
Heat Index: 63°   Visibility: 10mi
Dew Point: 32°   Wind: 14mph
Humidity: 32%   Direction: 310°NW
Pressure: 30.13"   Gusts: 18mph
Location:  46.14°N, 98.09°W
Report Text: KGWR 251835Z AUTO 31012G16KT 10SM CLR 17/00 A3013 RMK A01 P000
Loading
Personal Weather Stations






























Interactive Weather Map
Tropical Storm Tracking
New forecast layout! Learn more

10-Day Weather Forecast

Advertisements
Track Severe Weather on mobile